createdAt,value
2018-12-12T00:01:47.184Z,8.43
2018-12-12T00:04:13.350Z,7.57
2018-12-12T00:06:39.495Z,8.57
2018-12-12T00:09:05.806Z,12.77
2018-12-12T00:14:34.735Z,8.30
2018-12-12T00:17:01.015Z,8.47
2018-12-12T00:19:27.249Z,8.13
2018-12-12T00:21:53.577Z,6.87
2018-12-12T00:24:19.931Z,10.70
2018-12-12T00:26:46.298Z,7.87
2018-12-12T00:29:12.656Z,8.43
2018-12-12T00:31:38.931Z,7.60
2018-12-12T00:34:05.182Z,8.30
2018-12-12T00:36:31.494Z,6.27
2018-12-12T00:38:57.783Z,6.90
2018-12-12T00:41:24.049Z,6.67
2018-12-12T00:43:50.331Z,8.40
2018-12-12T00:46:16.639Z,7.13
2018-12-12T00:48:43.049Z,7.03
2018-12-12T00:51:09.309Z,11.80
2018-12-12T00:53:35.612Z,6.97
2018-12-12T00:56:01.862Z,6.50
2018-12-12T00:58:28.192Z,9.00
2018-12-12T01:00:54.545Z,7.20
2018-12-12T01:03:20.829Z,6.30
2018-12-12T01:05:47.168Z,8.97
2018-12-12T01:08:13.460Z,7.67
2018-12-12T01:10:39.724Z,7.23
2018-12-12T01:13:06.160Z,7.47
2018-12-12T01:15:32.563Z,7.37
2018-12-12T01:17:58.831Z,7.93
2018-12-12T01:20:25.147Z,9.60
2018-12-12T01:22:51.390Z,7.27
2018-12-12T01:25:17.679Z,8.43
2018-12-12T01:27:43.952Z,8.23
2018-12-12T01:30:10.222Z,6.93
2018-12-12T01:32:36.556Z,7.07
2018-12-12T01:35:03.908Z,7.60
2018-12-12T01:37:30.601Z,10.37
2018-12-12T01:39:56.932Z,11.93
2018-12-12T01:42:23.208Z,10.33
2018-12-12T01:44:49.587Z,8.83
2018-12-12T01:47:15.890Z,8.40
2018-12-12T01:49:42.162Z,7.40
2018-12-12T01:52:08.444Z,6.33
2018-12-12T01:54:34.882Z,7.70
2018-12-12T01:57:01.146Z,14.07
2018-12-12T01:59:27.564Z,8.67
2018-12-12T02:01:53.793Z,8.87
2018-12-12T02:04:20.090Z,7.03
2018-12-12T02:06:46.319Z,8.23
2018-12-12T02:09:12.652Z,6.63
2018-12-12T02:11:38.929Z,6.37
2018-12-12T02:14:05.291Z,5.87
2018-12-12T02:16:31.665Z,5.17
2018-12-12T02:18:58.169Z,5.03
2018-12-12T02:21:24.494Z,5.73
2018-12-12T02:23:50.779Z,5.03
2018-12-12T02:26:19.152Z,4.63
2018-12-12T02:28:45.466Z,5.43
2018-12-12T02:31:11.989Z,6.00
2018-12-12T02:33:38.296Z,5.10
2018-12-12T02:36:04.696Z,4.53
2018-12-12T02:38:31.018Z,9.17
2018-12-12T02:40:57.275Z,8.40
2018-12-12T02:43:23.673Z,8.53
2018-12-12T02:45:50.001Z,8.07
2018-12-12T02:48:16.407Z,7.67
2018-12-12T02:50:42.670Z,5.80
2018-12-12T02:53:08.928Z,5.63
2018-12-12T02:55:35.208Z,5.27
2018-12-12T02:58:01.494Z,5.30
2018-12-12T03:00:27.805Z,9.03
2018-12-12T03:02:54.095Z,6.37
2018-12-12T03:05:20.547Z,6.40
2018-12-12T03:07:46.817Z,6.47
2018-12-12T03:10:13.074Z,4.77
2018-12-12T03:12:39.533Z,4.93
2018-12-12T03:15:06.100Z,5.17
2018-12-12T03:17:32.728Z,5.20
2018-12-12T03:19:59.007Z,5.47
2018-12-12T03:22:25.281Z,6.00
2018-12-12T03:24:52.642Z,5.50
2018-12-12T03:27:18.911Z,4.67
2018-12-12T03:29:45.198Z,5.23
2018-12-12T03:32:11.512Z,5.23
2018-12-12T03:34:37.807Z,6.37
2018-12-12T03:37:04.114Z,6.70
2018-12-12T03:39:31.675Z,6.60
2018-12-12T03:41:57.912Z,5.40
2018-12-12T03:44:24.269Z,5.50
2018-12-12T03:46:50.583Z,5.53
2018-12-12T03:49:16.872Z,5.87
2018-12-12T03:51:43.131Z,5.60
2018-12-12T03:54:09.468Z,4.93
2018-12-12T03:56:35.719Z,4.53
2018-12-12T03:59:02.077Z,5.20
2018-12-12T04:01:28.349Z,5.23
2018-12-12T04:03:54.620Z,6.73
2018-12-12T04:06:20.936Z,7.80
2018-12-12T04:08:47.206Z,8.27
2018-12-12T04:11:13.474Z,6.03
2018-12-12T04:13:39.800Z,6.93
2018-12-12T04:16:06.084Z,5.93
2018-12-12T04:18:32.395Z,10.43
2018-12-12T04:20:58.713Z,8.43
2018-12-12T04:23:25.013Z,9.63
2018-12-12T04:25:51.292Z,8.80
2018-12-12T04:28:17.629Z,5.90
2018-12-12T04:30:43.912Z,5.80
2018-12-12T04:33:10.192Z,7.13
2018-12-12T04:35:36.614Z,7.93
2018-12-12T04:38:02.904Z,6.37
2018-12-12T04:40:29.187Z,7.50
2018-12-12T04:42:55.463Z,6.83
2018-12-12T04:45:21.729Z,8.07
2018-12-12T04:47:48.084Z,6.00
2018-12-12T04:50:14.362Z,8.37
2018-12-12T04:52:40.661Z,7.50
2018-12-12T04:55:06.974Z,9.00
2018-12-12T04:57:33.278Z,6.73
2018-12-12T04:59:59.576Z,6.50
2018-12-12T05:02:26.938Z,6.93
2018-12-12T05:04:54.144Z,5.90
2018-12-12T05:07:20.493Z,5.10
2018-12-12T05:09:46.729Z,4.00
2018-12-12T05:12:13.012Z,4.80
2018-12-12T05:14:39.302Z,5.83
2018-12-12T05:17:05.664Z,5.03
2018-12-12T05:19:32.037Z,5.40
2018-12-12T05:21:58.336Z,4.63
2018-12-12T05:24:24.607Z,4.33
2018-12-12T05:26:51.024Z,4.07
2018-12-12T05:29:17.504Z,3.90
2018-12-12T05:31:43.930Z,4.10
2018-12-12T05:34:10.304Z,6.13
2018-12-12T05:36:36.630Z,6.77
2018-12-12T05:39:05.686Z,6.53
2018-12-12T05:41:31.982Z,5.90
2018-12-12T05:43:58.244Z,5.60
2018-12-12T05:46:24.564Z,4.93
2018-12-12T05:48:51.703Z,5.17
2018-12-12T05:51:17.966Z,5.00
2018-12-12T05:53:44.258Z,4.50
2018-12-12T05:56:14.116Z,4.23
2018-12-12T05:58:38.823Z,4.57
2018-12-12T06:01:05.128Z,4.87
2018-12-12T06:03:31.401Z,5.87
2018-12-12T06:05:57.675Z,6.10
2018-12-12T06:08:23.939Z,5.37
2018-12-12T06:10:50.188Z,4.93
2018-12-12T06:13:16.460Z,4.90
2018-12-12T06:15:42.765Z,4.87
2018-12-12T06:18:09.025Z,5.03
2018-12-12T06:20:35.353Z,4.80
2018-12-12T06:23:01.717Z,4.70
2018-12-12T06:25:28.038Z,5.67
2018-12-12T06:27:54.311Z,4.20
2018-12-12T06:30:20.568Z,5.70
2018-12-12T06:32:46.852Z,4.63
2018-12-12T06:35:13.188Z,5.17
2018-12-12T06:37:39.454Z,5.33
2018-12-12T06:40:05.959Z,5.60
2018-12-12T06:42:32.235Z,6.23
2018-12-12T06:44:58.509Z,9.27
2018-12-12T06:47:24.788Z,7.50
2018-12-12T06:49:51.110Z,7.13
2018-12-12T06:52:17.400Z,7.47
2018-12-12T06:54:43.710Z,8.30
2018-12-12T06:57:09.996Z,8.20
2018-12-12T06:59:36.308Z,6.33
2018-12-12T07:02:03.074Z,6.90
2018-12-12T07:04:29.526Z,6.70
2018-12-12T07:06:56.763Z,6.80
2018-12-12T07:09:23.034Z,6.90
2018-12-12T07:11:49.354Z,5.60
2018-12-12T07:14:15.617Z,4.87
2018-12-12T07:16:41.903Z,5.23
2018-12-12T07:19:08.177Z,7.50
2018-12-12T07:21:34.422Z,9.77
2018-12-12T07:24:00.766Z,7.93
2018-12-12T07:26:27.066Z,6.50
2018-12-12T07:28:53.332Z,6.87
2018-12-12T07:31:19.746Z,5.83
2018-12-12T07:33:46.008Z,5.80
2018-12-12T07:36:12.415Z,4.67
2018-12-12T07:38:38.676Z,7.13
2018-12-12T07:41:05.085Z,5.90
2018-12-12T07:43:31.345Z,4.93
2018-12-12T07:45:57.602Z,7.77
2018-12-12T07:48:23.864Z,11.33
2018-12-12T07:50:50.134Z,10.87
2018-12-12T07:53:16.436Z,11.17
2018-12-12T07:55:42.744Z,10.83
2018-12-12T07:58:09.018Z,11.23
2018-12-12T08:00:35.308Z,12.00
2018-12-12T08:03:05.394Z,11.60
2018-12-12T08:05:29.895Z,11.33
2018-12-12T08:07:56.180Z,11.27
2018-12-12T08:10:22.478Z,8.73
2018-12-12T08:12:48.755Z,9.37
2018-12-12T08:15:15.015Z,7.60
2018-12-12T08:17:41.280Z,6.27
2018-12-12T08:20:07.552Z,5.93
2018-12-12T08:22:33.816Z,5.47
2018-12-12T08:25:00.149Z,5.20
2018-12-12T08:27:26.437Z,6.93
2018-12-12T08:29:52.716Z,14.43
2018-12-12T08:32:18.980Z,7.13
2018-12-12T08:34:45.257Z,8.43
2018-12-12T08:37:11.457Z,8.40
2018-12-12T08:39:37.724Z,7.07
2018-12-12T08:42:04.004Z,8.10
2018-12-12T08:44:30.313Z,7.77
2018-12-12T08:46:56.590Z,7.47
2018-12-12T08:49:23.046Z,16.13
2018-12-12T08:51:49.305Z,9.27
2018-12-12T08:54:15.579Z,8.17
2018-12-12T08:56:41.913Z,11.27
2018-12-12T08:59:08.217Z,14.80
2018-12-12T09:01:34.702Z,11.27
2018-12-12T09:04:00.977Z,10.40
2018-12-12T09:06:27.210Z,8.77
2018-12-12T09:08:53.480Z,9.30
2018-12-12T09:11:19.738Z,7.63
2018-12-12T09:13:46.004Z,6.47
2018-12-12T09:16:12.282Z,7.70
2018-12-12T09:18:38.518Z,7.00
2018-12-12T09:21:04.840Z,7.87
2018-12-12T09:23:31.120Z,7.97
2018-12-12T09:25:57.464Z,8.00
2018-12-12T09:28:23.792Z,7.67
2018-12-12T09:30:49.999Z,7.87
2018-12-12T09:33:16.357Z,8.80
2018-12-12T09:35:42.717Z,7.93
2018-12-12T09:38:08.972Z,8.23
2018-12-12T09:40:35.624Z,8.60
2018-12-12T09:43:01.947Z,9.13
2018-12-12T09:45:28.212Z,10.13
2018-12-12T09:47:54.489Z,11.03
2018-12-12T09:50:21.021Z,10.70
2018-12-12T09:52:47.242Z,10.53
2018-12-12T09:55:15.586Z,10.43
2018-12-12T09:57:41.903Z,12.77
2018-12-12T10:00:08.392Z,11.27
2018-12-12T10:02:34.743Z,10.23
2018-12-12T10:05:01.032Z,11.60
2018-12-12T10:07:27.311Z,14.40
2018-12-12T10:09:53.587Z,13.50
2018-12-12T10:12:19.903Z,15.30
2018-12-12T10:14:46.167Z,13.57
2018-12-12T10:17:12.426Z,14.67
2018-12-12T10:19:38.721Z,14.10
2018-12-12T10:22:05.042Z,13.83
2018-12-12T10:24:31.549Z,13.17
2018-12-12T10:26:57.805Z,11.73
2018-12-12T10:29:24.068Z,11.53
2018-12-12T10:31:50.361Z,12.33
2018-12-12T10:34:16.652Z,11.90
2018-12-12T10:36:42.923Z,10.30
2018-12-12T10:39:09.234Z,10.60
2018-12-12T10:41:35.507Z,12.37
2018-12-12T10:44:01.789Z,12.10
2018-12-12T10:46:28.074Z,10.83
2018-12-12T10:48:54.382Z,12.93
2018-12-12T10:51:20.577Z,12.47
2018-12-12T10:53:46.849Z,12.63
2018-12-12T10:56:13.195Z,14.73
2018-12-12T10:58:39.510Z,16.47
2018-12-12T11:01:11.844Z,11.77
2018-12-12T11:03:44.128Z,12.50
2018-12-12T11:06:08.368Z,15.30
2018-12-12T11:08:34.590Z,14.67
2018-12-12T11:11:00.878Z,13.63
2018-12-12T11:13:27.161Z,19.67
2018-12-12T11:15:53.437Z,31.63
2018-12-12T11:18:19.755Z,22.07
2018-12-12T11:20:46.024Z,19.87
2018-12-12T11:23:12.338Z,23.90
2018-12-12T11:25:38.622Z,29.27
2018-12-12T11:28:04.914Z,23.40
2018-12-12T11:30:31.212Z,29.23
2018-12-12T11:32:57.503Z,24.03
2018-12-12T11:35:23.732Z,24.03
2018-12-12T11:37:49.966Z,21.80
2018-12-12T11:40:16.186Z,17.57
2018-12-12T11:42:42.480Z,15.57
2018-12-12T11:45:08.760Z,15.43
2018-12-12T11:47:34.992Z,18.50
2018-12-12T11:50:01.412Z,15.97
2018-12-12T11:52:27.665Z,19.10
2018-12-12T11:54:53.922Z,19.67
2018-12-12T11:57:20.628Z,26.00
2018-12-12T11:59:46.911Z,25.90
2018-12-12T12:02:13.204Z,24.77
2018-12-12T12:04:39.573Z,22.63
2018-12-12T12:07:05.953Z,19.63
2018-12-12T12:09:32.203Z,24.07
2018-12-12T12:11:58.467Z,20.47
2018-12-12T12:14:24.761Z,23.40
2018-12-12T12:16:51.000Z,23.27
2018-12-12T12:19:17.262Z,21.03
2018-12-12T12:21:43.562Z,17.67
2018-12-12T12:24:09.788Z,19.00
2018-12-12T12:26:36.190Z,20.17
2018-12-12T12:29:02.606Z,17.53
2018-12-12T12:31:29.047Z,19.27
2018-12-12T12:33:55.822Z,19.37
2018-12-12T12:36:22.056Z,17.13
2018-12-12T12:38:48.324Z,16.03
2018-12-12T12:41:14.596Z,16.50
2018-12-12T12:43:40.851Z,21.87
2018-12-12T12:46:07.130Z,21.80
2018-12-12T12:48:33.454Z,21.27
2018-12-12T12:50:59.749Z,19.90
2018-12-12T12:53:26.012Z,17.97
2018-12-12T12:55:52.528Z,17.83
2018-12-12T12:58:19.014Z,19.77
2018-12-12T13:00:45.373Z,18.53
2018-12-12T13:03:11.677Z,16.10
2018-12-12T13:05:37.892Z,12.73
2018-12-12T13:08:04.184Z,11.50
2018-12-12T13:10:30.777Z,11.57
2018-12-12T13:12:57.368Z,11.57
2018-12-12T13:15:23.935Z,10.73
2018-12-12T13:17:50.184Z,13.10
2018-12-12T13:20:16.540Z,13.87
2018-12-12T13:22:42.818Z,15.43
2018-12-12T13:25:09.108Z,14.57
2018-12-12T13:27:35.366Z,17.23
2018-12-12T13:30:01.669Z,18.97
2018-12-12T13:32:27.935Z,17.90
2018-12-12T13:34:54.222Z,14.13
2018-12-12T13:37:20.485Z,12.57
2018-12-12T13:39:46.746Z,12.60
2018-12-12T13:42:13.039Z,11.73
2018-12-12T13:44:39.296Z,10.43
2018-12-12T13:47:05.568Z,11.23
2018-12-12T13:49:31.853Z,10.10
2018-12-12T13:51:58.161Z,11.63
2018-12-12T13:54:24.431Z,12.67
2018-12-12T13:56:50.777Z,11.07
2018-12-12T13:59:17.050Z,8.70
2018-12-12T14:01:43.368Z,8.43
2018-12-12T14:04:09.628Z,9.83
2018-12-12T14:06:35.903Z,10.23
2018-12-12T14:09:02.596Z,9.20
2018-12-12T14:11:28.884Z,11.13
2018-12-12T14:13:55.189Z,9.77
2018-12-12T14:16:21.511Z,12.10
2018-12-12T14:18:47.788Z,10.70
2018-12-12T14:21:14.064Z,9.50
2018-12-12T14:23:40.321Z,9.90
2018-12-12T14:26:06.553Z,8.57
2018-12-12T14:28:32.847Z,12.33
2018-12-12T14:30:59.100Z,14.43
2018-12-12T14:33:25.344Z,15.77
2018-12-12T14:35:51.616Z,15.27
2018-12-12T14:38:17.925Z,16.70
2018-12-12T14:40:44.226Z,18.53
2018-12-12T14:43:10.496Z,13.90
2018-12-12T14:45:36.757Z,13.07
2018-12-12T14:48:03.113Z,13.93
2018-12-12T14:50:29.484Z,12.33
2018-12-12T14:52:55.733Z,10.83
2018-12-12T14:55:22.020Z,14.67
2018-12-12T15:00:38.637Z,13.70
2018-12-12T15:03:04.872Z,15.73
2018-12-12T15:05:31.143Z,17.00
2018-12-12T15:07:57.421Z,16.53
2018-12-12T15:10:23.713Z,17.50
2018-12-12T15:12:50.018Z,16.83
2018-12-12T15:15:16.310Z,16.90
2018-12-12T15:17:42.548Z,16.50
2018-12-12T15:20:08.908Z,13.53
2018-12-12T15:22:35.171Z,14.70
2018-12-12T15:25:01.604Z,12.60
2018-12-12T15:27:27.886Z,11.53
2018-12-12T15:29:54.120Z,11.43
2018-12-12T15:32:20.477Z,11.90
2018-12-12T15:34:46.736Z,10.97
2018-12-12T15:37:13.020Z,12.77
2018-12-12T15:39:39.286Z,14.40
2018-12-12T15:42:05.525Z,12.60
2018-12-12T15:44:31.795Z,13.27
2018-12-12T15:46:58.062Z,12.03
2018-12-12T15:49:24.380Z,16.03
2018-12-12T15:51:50.664Z,12.50
2018-12-12T15:54:16.924Z,13.07
2018-12-12T15:56:43.208Z,12.77
2018-12-12T15:59:09.558Z,11.93
2018-12-12T16:01:35.837Z,10.13
2018-12-12T16:04:02.102Z,10.93
2018-12-12T16:06:28.375Z,12.90
2018-12-12T16:08:54.654Z,12.20
2018-12-12T16:11:20.857Z,13.03
2018-12-12T16:13:47.148Z,13.63
2018-12-12T16:16:13.414Z,12.87
2018-12-12T16:18:39.677Z,11.37
2018-12-12T16:21:06.018Z,13.37
2018-12-12T16:23:32.326Z,11.60
2018-12-12T16:25:58.618Z,13.07
2018-12-12T16:28:24.910Z,12.07
2018-12-12T16:30:51.227Z,13.30
2018-12-12T16:33:17.541Z,14.23
2018-12-12T16:35:43.810Z,13.70
2018-12-12T16:38:10.122Z,14.90
2018-12-12T16:40:36.387Z,22.00
2018-12-12T16:43:02.792Z,18.97
2018-12-12T16:45:29.084Z,25.17
2018-12-12T16:47:55.312Z,18.30
2018-12-12T16:50:21.578Z,19.00
2018-12-12T16:52:47.877Z,19.67
2018-12-12T16:55:14.175Z,19.10
2018-12-12T16:57:40.470Z,17.87
2018-12-12T17:00:07.607Z,18.43
2018-12-12T17:02:33.936Z,18.77
2018-12-12T17:05:02.450Z,14.43
2018-12-12T17:07:28.521Z,15.17
2018-12-12T17:09:54.833Z,14.87
2018-12-12T17:12:21.117Z,13.70
2018-12-12T17:14:47.450Z,17.30
2018-12-12T17:17:13.801Z,24.80
2018-12-12T17:19:40.203Z,22.47
2018-12-12T17:22:06.432Z,24.40
2018-12-12T17:24:32.707Z,21.57
2018-12-12T17:26:58.996Z,20.00
2018-12-12T17:29:25.259Z,19.67
2018-12-12T17:31:51.536Z,18.50
2018-12-12T17:34:17.808Z,16.77
2018-12-12T17:36:44.164Z,16.57
2018-12-12T17:39:10.425Z,15.83
2018-12-12T17:41:36.671Z,19.00
2018-12-12T17:44:03.108Z,16.60
2018-12-12T17:46:29.420Z,15.07
2018-12-12T17:48:55.692Z,16.43
2018-12-12T17:51:22.017Z,18.63
2018-12-12T17:53:48.294Z,17.37
2018-12-12T17:56:14.603Z,16.40
2018-12-12T17:58:40.877Z,16.83
2018-12-12T18:01:07.386Z,19.43
2018-12-12T18:03:33.655Z,19.83
2018-12-12T18:05:59.889Z,18.00
2018-12-12T18:08:26.171Z,17.83
2018-12-12T18:10:52.452Z,17.80
2018-12-12T18:13:18.745Z,17.70
2018-12-12T18:15:45.015Z,15.60
2018-12-12T18:18:11.289Z,14.23
2018-12-12T18:20:37.597Z,17.10
2018-12-12T18:23:04.004Z,14.87
2018-12-12T18:25:30.313Z,14.47
2018-12-12T18:27:56.627Z,14.47
2018-12-12T18:30:22.893Z,14.53
2018-12-12T18:32:49.140Z,12.53
2018-12-12T18:35:21.735Z,13.60
2018-12-12T18:37:43.664Z,14.17
2018-12-12T18:40:09.926Z,12.77
2018-12-12T18:42:36.168Z,13.37
2018-12-12T18:45:02.875Z,13.13
2018-12-12T18:47:29.172Z,17.57
2018-12-12T18:49:55.462Z,13.57
2018-12-12T18:52:21.757Z,13.40
2018-12-12T18:54:48.100Z,12.70
2018-12-12T18:57:14.393Z,12.47
2018-12-12T18:59:40.733Z,11.67
2018-12-12T19:02:07.017Z,9.07
2018-12-12T19:04:33.450Z,9.50
2018-12-12T19:06:59.823Z,9.77
2018-12-12T19:09:26.054Z,11.03
2018-12-12T19:11:52.317Z,11.30
2018-12-12T19:14:18.566Z,11.37
2018-12-12T19:16:44.880Z,9.70
2018-12-12T19:19:12.536Z,7.90
2018-12-12T19:21:39.082Z,7.83
2018-12-12T19:24:05.309Z,7.10
2018-12-12T19:26:31.590Z,8.30
2018-12-12T19:28:57.884Z,10.13
2018-12-12T19:31:24.248Z,8.67
2018-12-12T19:33:50.559Z,11.60
2018-12-12T19:36:16.922Z,11.17
2018-12-12T19:38:43.256Z,8.57
2018-12-12T19:41:09.548Z,8.90
2018-12-12T19:43:35.800Z,7.70
2018-12-12T19:46:02.078Z,8.70
2018-12-12T19:48:28.403Z,7.77
2018-12-12T19:50:54.684Z,9.70
2018-12-12T19:53:20.945Z,8.77
2018-12-12T19:55:47.257Z,8.40
2018-12-12T19:58:13.544Z,7.47
2018-12-12T20:00:39.819Z,8.43
2018-12-12T20:03:06.145Z,7.93
2018-12-12T20:05:32.489Z,6.77
2018-12-12T20:07:58.811Z,7.03
2018-12-12T20:10:25.070Z,5.40
2018-12-12T20:12:51.465Z,5.13
2018-12-12T20:15:23.714Z,5.30
2018-12-12T20:17:50.039Z,6.03
2018-12-12T20:20:16.429Z,6.00
2018-12-12T20:22:42.709Z,5.60
2018-12-12T20:25:08.956Z,6.33
2018-12-12T20:27:35.274Z,6.13
2018-12-12T20:30:01.541Z,5.37
2018-12-12T20:32:27.829Z,5.90
2018-12-12T20:34:54.083Z,6.17
2018-12-12T20:37:20.363Z,6.27
2018-12-12T20:39:46.665Z,6.40
2018-12-12T20:42:12.916Z,6.17
2018-12-12T20:44:39.332Z,5.60
2018-12-12T20:47:05.665Z,6.50
2018-12-12T20:49:31.912Z,6.30
2018-12-12T20:51:58.284Z,9.40
2018-12-12T20:54:24.565Z,9.13
2018-12-12T20:56:51.725Z,9.20
2018-12-12T20:59:18.112Z,9.50
2018-12-12T21:01:44.364Z,9.57
2018-12-12T21:04:10.654Z,8.90
2018-12-12T21:06:36.911Z,7.20
2018-12-12T21:09:05.144Z,7.93
2018-12-12T21:11:31.412Z,6.50
2018-12-12T21:13:57.839Z,7.03
2018-12-12T21:16:24.086Z,7.27
2018-12-12T21:18:50.869Z,6.90
2018-12-12T21:21:17.085Z,6.27
2018-12-12T21:23:43.346Z,6.87
2018-12-12T21:26:10.214Z,7.37
2018-12-12T21:28:36.522Z,7.60
2018-12-12T21:31:02.978Z,7.63
2018-12-12T21:33:29.266Z,6.77
2018-12-12T21:36:00.713Z,8.03
2018-12-12T21:38:23.794Z,8.83
2018-12-12T21:40:50.088Z,7.47
2018-12-12T21:43:16.489Z,7.70
2018-12-12T21:45:42.764Z,7.57
2018-12-12T21:48:09.039Z,7.93
2018-12-12T21:50:36.412Z,6.93
2018-12-12T21:53:04.459Z,7.17
2018-12-12T21:55:30.738Z,6.80
2018-12-12T21:57:57.098Z,6.10
2018-12-12T22:00:23.378Z,6.40
2018-12-12T22:02:49.668Z,6.90
2018-12-12T22:05:15.966Z,6.57
2018-12-12T22:07:42.320Z,7.20
2018-12-12T22:10:08.669Z,6.30
2018-12-12T22:12:34.950Z,6.27
2018-12-12T22:15:01.253Z,8.67
2018-12-12T22:17:27.453Z,8.20
2018-12-12T22:19:53.714Z,7.07
2018-12-12T22:22:19.977Z,7.67
2018-12-12T22:24:46.268Z,8.73
2018-12-12T22:27:12.528Z,9.07
2018-12-12T22:29:38.842Z,8.27
2018-12-12T22:32:05.149Z,7.57
2018-12-12T22:34:31.442Z,9.03
2018-12-12T22:36:57.862Z,7.70
2018-12-12T22:39:24.103Z,8.87
2018-12-12T22:41:50.510Z,8.83
2018-12-12T22:44:16.755Z,8.23
2018-12-12T22:46:43.050Z,8.97
2018-12-12T22:49:09.324Z,9.40
2018-12-12T22:51:35.626Z,9.43
2018-12-12T22:54:01.870Z,9.03
2018-12-12T22:56:28.180Z,8.73
2018-12-12T22:58:54.439Z,9.50
2018-12-12T23:01:23.797Z,8.93
2018-12-12T23:03:50.221Z,7.40
2018-12-12T23:06:20.347Z,7.67
2018-12-12T23:08:44.797Z,8.30
2018-12-12T23:11:11.139Z,8.20
2018-12-12T23:13:37.373Z,7.20
2018-12-12T23:16:03.669Z,9.13
2018-12-12T23:18:29.950Z,8.60
2018-12-12T23:20:56.257Z,7.40
2018-12-12T23:23:22.537Z,9.20
2018-12-12T23:25:48.810Z,8.50
2018-12-12T23:28:15.076Z,7.03
2018-12-12T23:30:41.386Z,8.50
2018-12-12T23:33:07.710Z,9.40
2018-12-12T23:35:33.914Z,8.90
2018-12-12T23:38:00.162Z,7.63
2018-12-12T23:40:26.452Z,7.17
2018-12-12T23:42:52.705Z,9.40
2018-12-12T23:45:19.012Z,8.00
2018-12-12T23:47:45.266Z,8.73
2018-12-12T23:50:11.660Z,8.77
2018-12-12T23:52:37.930Z,10.03
2018-12-12T23:55:04.336Z,8.37
2018-12-12T23:57:30.614Z,7.33
2018-12-12T23:59:56.895Z,7.97
